sensor_id;sensor_type;location;lat;lon;timestamp;P1;durP1;ratioP1;P2;durP2;ratioP2
72856;SDS011;62742;52.136;4.500;2022-08-21T00:01:26;11.15;;;4.05;;
72856;SDS011;62742;52.136;4.500;2022-08-21T00:03:56;13.80;;;5.20;;
72856;SDS011;62742;52.136;4.500;2022-08-21T00:06:23;16.67;;;5.10;;
72856;SDS011;62742;52.136;4.500;2022-08-21T00:08:50;12.30;;;4.45;;
72856;SDS011;62742;52.136;4.500;2022-08-21T00:11:18;11.70;;;4.55;;
72856;SDS011;62742;52.136;4.500;2022-08-21T00:13:44;11.85;;;4.65;;
72856;SDS011;62742;52.136;4.500;2022-08-21T00:16:11;9.88;;;3.67;;
72856;SDS011;62742;52.136;4.500;2022-08-21T00:18:38;12.40;;;4.88;;
72856;SDS011;62742;52.136;4.500;2022-08-21T00:21:04;13.85;;;5.03;;
72856;SDS011;62742;52.136;4.500;2022-08-21T00:23:33;16.98;;;4.70;;
72856;SDS011;62742;52.136;4.500;2022-08-21T00:26:01;9.00;;;4.10;;
72856;SDS011;62742;52.136;4.500;2022-08-21T00:28:28;13.57;;;4.57;;
72856;SDS011;62742;52.136;4.500;2022-08-21T00:30:56;14.52;;;4.38;;
72856;SDS011;62742;52.136;4.500;2022-08-21T00:33:23;10.65;;;3.42;;
72856;SDS011;62742;52.136;4.500;2022-08-21T00:35:51;11.52;;;3.90;;
72856;SDS011;62742;52.136;4.500;2022-08-21T00:38:18;11.18;;;4.53;;
72856;SDS011;62742;52.136;4.500;2022-08-21T00:40:47;10.00;;;4.15;;
72856;SDS011;62742;52.136;4.500;2022-08-21T00:43:21;10.95;;;4.30;;
72856;SDS011;62742;52.136;4.500;2022-08-21T00:45:53;11.93;;;4.35;;
72856;SDS011;62742;52.136;4.500;2022-08-21T00:48:22;11.30;;;3.83;;
72856;SDS011;62742;52.136;4.500;2022-08-21T00:50:58;9.63;;;4.00;;
72856;SDS011;62742;52.136;4.500;2022-08-21T00:53:49;11.65;;;4.13;;
72856;SDS011;62742;52.136;4.500;2022-08-21T00:56:23;11.10;;;4.05;;
72856;SDS011;62742;52.136;4.500;2022-08-21T00:58:51;12.50;;;4.43;;
72856;SDS011;62742;52.136;4.500;2022-08-21T01:01:20;14.20;;;3.85;;
72856;SDS011;62742;52.136;4.500;2022-08-21T01:03:47;10.07;;;3.80;;
72856;SDS011;62742;52.136;4.500;2022-08-21T01:06:15;13.63;;;4.22;;
72856;SDS011;62742;52.136;4.500;2022-08-21T01:08:43;11.57;;;4.10;;
72856;SDS011;62742;52.136;4.500;2022-08-21T01:11:10;13.98;;;5.43;;
72856;SDS011;62742;52.136;4.500;2022-08-21T01:13:36;17.48;;;5.80;;
72856;SDS011;62742;52.136;4.500;2022-08-21T01:16:10;11.77;;;4.70;;
72856;SDS011;62742;52.136;4.500;2022-08-21T01:18:41;13.95;;;4.65;;
72856;SDS011;62742;52.136;4.500;2022-08-21T01:21:12;19.23;;;6.18;;
72856;SDS011;62742;52.136;4.500;2022-08-21T01:23:45;12.95;;;4.53;;
72856;SDS011;62742;52.136;4.500;2022-08-21T01:26:15;14.13;;;5.10;;
72856;SDS011;62742;52.136;4.500;2022-08-21T01:28:52;12.05;;;4.45;;
72856;SDS011;62742;52.136;4.500;2022-08-21T01:31:27;16.25;;;5.93;;
72856;SDS011;62742;52.136;4.500;2022-08-21T01:33:57;12.88;;;4.97;;
72856;SDS011;62742;52.136;4.500;2022-08-21T01:36:24;17.48;;;4.95;;
72856;SDS011;62742;52.136;4.500;2022-08-21T01:38:52;12.27;;;4.35;;
72856;SDS011;62742;52.136;4.500;2022-08-21T01:41:18;16.38;;;4.70;;
72856;SDS011;62742;52.136;4.500;2022-08-21T01:43:45;10.80;;;3.95;;
72856;SDS011;62742;52.136;4.500;2022-08-21T01:46:12;10.35;;;4.78;;
72856;SDS011;62742;52.136;4.500;2022-08-21T01:48:40;11.70;;;4.57;;
72856;SDS011;62742;52.136;4.500;2022-08-21T01:51:07;12.85;;;5.05;;
72856;SDS011;62742;52.136;4.500;2022-08-21T01:53:35;11.15;;;5.15;;
72856;SDS011;62742;52.136;4.500;2022-08-21T01:56:03;15.02;;;5.10;;
72856;SDS011;62742;52.136;4.500;2022-08-21T01:58:34;6.90;;;3.67;;
72856;SDS011;62742;52.136;4.500;2022-08-21T02:01:01;12.38;;;4.55;;
72856;SDS011;62742;52.136;4.500;2022-08-21T02:03:29;10.52;;;5.07;;
72856;SDS011;62742;52.136;4.500;2022-08-21T02:05:56;10.88;;;3.70;;
72856;SDS011;62742;52.136;4.500;2022-08-21T02:08:23;12.77;;;5.32;;
72856;SDS011;62742;52.136;4.500;2022-08-21T02:10:50;14.20;;;5.57;;
72856;SDS011;62742;52.136;4.500;2022-08-21T02:13:18;11.65;;;5.13;;
72856;SDS011;62742;52.136;4.500;2022-08-21T02:15:45;10.35;;;4.18;;
72856;SDS011;62742;52.136;4.500;2022-08-21T02:18:11;15.10;;;5.35;;
72856;SDS011;62742;52.136;4.500;2022-08-21T02:20:40;13.70;;;4.72;;
72856;SDS011;62742;52.136;4.500;2022-08-21T02:23:11;12.82;;;3.72;;
72856;SDS011;62742;52.136;4.500;2022-08-21T02:25:38;15.00;;;5.40;;
72856;SDS011;62742;52.136;4.500;2022-08-21T02:28:07;15.27;;;4.47;;
72856;SDS011;62742;52.136;4.500;2022-08-21T02:30:40;14.60;;;5.32;;
72856;SDS011;62742;52.136;4.500;2022-08-21T02:33:11;12.98;;;5.10;;
72856;SDS011;62742;52.136;4.500;2022-08-21T02:35:40;11.75;;;4.55;;
72856;SDS011;62742;52.136;4.500;2022-08-21T02:38:10;15.10;;;4.50;;
72856;SDS011;62742;52.136;4.500;2022-08-21T02:40:42;11.40;;;4.88;;
72856;SDS011;62742;52.136;4.500;2022-08-21T02:43:11;14.57;;;4.88;;
72856;SDS011;62742;52.136;4.500;2022-08-21T02:45:38;12.18;;;4.78;;
72856;SDS011;62742;52.136;4.500;2022-08-21T02:48:07;13.13;;;4.47;;
72856;SDS011;62742;52.136;4.500;2022-08-21T02:50:41;11.38;;;4.55;;
72856;SDS011;62742;52.136;4.500;2022-08-21T02:53:15;12.93;;;4.55;;
72856;SDS011;62742;52.136;4.500;2022-08-21T02:55:43;10.02;;;3.55;;
72856;SDS011;62742;52.136;4.500;2022-08-21T02:58:13;11.07;;;4.75;;
72856;SDS011;62742;52.136;4.500;2022-08-21T03:00:43;13.77;;;5.50;;
72856;SDS011;62742;52.136;4.500;2022-08-21T03:03:10;12.57;;;4.45;;
72856;SDS011;62742;52.136;4.500;2022-08-21T03:05:39;11.70;;;3.83;;
72856;SDS011;62742;52.136;4.500;2022-08-21T03:08:06;12.75;;;5.07;;
72856;SDS011;62742;52.136;4.500;2022-08-21T03:10:39;13.00;;;4.97;;
72856;SDS011;62742;52.136;4.500;2022-08-21T03:13:10;17.67;;;4.82;;
72856;SDS011;62742;52.136;4.500;2022-08-21T03:15:37;16.30;;;5.25;;
72856;SDS011;62742;52.136;4.500;2022-08-21T03:18:04;9.25;;;4.20;;
72856;SDS011;62742;52.136;4.500;2022-08-21T03:20:32;15.80;;;5.07;;
72856;SDS011;62742;52.136;4.500;2022-08-21T03:23:01;14.73;;;4.70;;
72856;SDS011;62742;52.136;4.500;2022-08-21T03:25:29;12.85;;;4.20;;
72856;SDS011;62742;52.136;4.500;2022-08-21T03:28:00;11.38;;;3.83;;
72856;SDS011;62742;52.136;4.500;2022-08-21T03:30:30;8.82;;;4.57;;
72856;SDS011;62742;52.136;4.500;2022-08-21T03:32:58;11.30;;;4.00;;
72856;SDS011;62742;52.136;4.500;2022-08-21T03:35:26;10.48;;;4.18;;
72856;SDS011;62742;52.136;4.500;2022-08-21T03:37:53;11.07;;;4.05;;
72856;SDS011;62742;52.136;4.500;2022-08-21T03:40:23;14.07;;;4.43;;
72856;SDS011;62742;52.136;4.500;2022-08-21T03:42:50;10.30;;;3.33;;
72856;SDS011;62742;52.136;4.500;2022-08-21T03:45:17;8.68;;;4.30;;
72856;SDS011;62742;52.136;4.500;2022-08-21T03:47:55;14.68;;;5.47;;
72856;SDS011;62742;52.136;4.500;2022-08-21T03:50:29;13.63;;;5.78;;
72856;SDS011;62742;52.136;4.500;2022-08-21T03:53:00;11.45;;;4.15;;
72856;SDS011;62742;52.136;4.500;2022-08-21T03:55:27;17.35;;;5.65;;
72856;SDS011;62742;52.136;4.500;2022-08-21T03:57:54;15.40;;;5.50;;
72856;SDS011;62742;52.136;4.500;2022-08-21T04:00:21;18.88;;;6.13;;
72856;SDS011;62742;52.136;4.500;2022-08-21T04:02:49;17.55;;;7.30;;
72856;SDS011;62742;52.136;4.500;2022-08-21T04:05:16;15.02;;;5.88;;
72856;SDS011;62742;52.136;4.500;2022-08-21T04:07:53;13.30;;;6.03;;
72856;SDS011;62742;52.136;4.500;2022-08-21T04:10:25;15.95;;;7.20;;
72856;SDS011;62742;52.136;4.500;2022-08-21T04:12:54;22.13;;;8.25;;
72856;SDS011;62742;52.136;4.500;2022-08-21T04:15:21;14.93;;;6.25;;
72856;SDS011;62742;52.136;4.500;2022-08-21T04:17:51;18.52;;;6.65;;
72856;SDS011;62742;52.136;4.500;2022-08-21T04:20:18;19.20;;;7.35;;
72856;SDS011;62742;52.136;4.500;2022-08-21T04:22:47;12.82;;;6.22;;
72856;SDS011;62742;52.136;4.500;2022-08-21T04:25:16;21.48;;;8.68;;
72856;SDS011;62742;52.136;4.500;2022-08-21T04:27:46;21.10;;;9.07;;
72856;SDS011;62742;52.136;4.500;2022-08-21T04:30:13;11.98;;;6.85;;
72856;SDS011;62742;52.136;4.500;2022-08-21T04:32:42;11.25;;;6.10;;
72856;SDS011;62742;52.136;4.500;2022-08-21T04:35:14;9.52;;;4.93;;
72856;SDS011;62742;52.136;4.500;2022-08-21T04:37:44;16.75;;;7.80;;
72856;SDS011;62742;52.136;4.500;2022-08-21T04:40:11;18.27;;;7.57;;
72856;SDS011;62742;52.136;4.500;2022-08-21T04:42:45;14.95;;;7.10;;
72856;SDS011;62742;52.136;4.500;2022-08-21T04:45:20;16.63;;;6.80;;
72856;SDS011;62742;52.136;4.500;2022-08-21T04:48:03;15.98;;;8.25;;
72856;SDS011;62742;52.136;4.500;2022-08-21T04:50:37;17.52;;;8.18;;
72856;SDS011;62742;52.136;4.500;2022-08-21T04:55:49;25.88;;;11.52;;
72856;SDS011;62742;52.136;4.500;2022-08-21T04:58:20;25.13;;;11.07;;
72856;SDS011;62742;52.136;4.500;2022-08-21T05:00:51;27.48;;;12.98;;
72856;SDS011;62742;52.136;4.500;2022-08-21T05:03:21;33.40;;;16.85;;
72856;SDS011;62742;52.136;4.500;2022-08-21T05:05:49;36.15;;;17.33;;
72856;SDS011;62742;52.136;4.500;2022-08-21T05:08:17;35.38;;;15.23;;
72856;SDS011;62742;52.136;4.500;2022-08-21T05:10:49;33.33;;;17.08;;
72856;SDS011;62742;52.136;4.500;2022-08-21T05:13:16;35.20;;;16.45;;
72856;SDS011;62742;52.136;4.500;2022-08-21T05:15:43;37.28;;;18.00;;
72856;SDS011;62742;52.136;4.500;2022-08-21T05:18:10;35.53;;;17.23;;
72856;SDS011;62742;52.136;4.500;2022-08-21T05:20:37;42.20;;;16.60;;
72856;SDS011;62742;52.136;4.500;2022-08-21T05:23:08;34.33;;;15.32;;
72856;SDS011;62742;52.136;4.500;2022-08-21T05:25:37;34.88;;;15.57;;
72856;SDS011;62742;52.136;4.500;2022-08-21T05:28:04;32.88;;;16.95;;
72856;SDS011;62742;52.136;4.500;2022-08-21T05:30:31;34.05;;;15.98;;
72856;SDS011;62742;52.136;4.500;2022-08-21T05:33:00;32.20;;;15.18;;
72856;SDS011;62742;52.136;4.500;2022-08-21T05:35:30;31.00;;;14.30;;
72856;SDS011;62742;52.136;4.500;2022-08-21T05:37:58;31.35;;;13.50;;
72856;SDS011;62742;52.136;4.500;2022-08-21T05:40:25;33.08;;;13.63;;
72856;SDS011;62742;52.136;4.500;2022-08-21T05:42:53;27.40;;;13.40;;
72856;SDS011;62742;52.136;4.500;2022-08-21T05:45:25;23.95;;;10.90;;
72856;SDS011;62742;52.136;4.500;2022-08-21T05:47:56;25.35;;;10.40;;
72856;SDS011;62742;52.136;4.500;2022-08-21T05:50:22;20.27;;;10.50;;
72856;SDS011;62742;52.136;4.500;2022-08-21T05:52:49;17.77;;;8.57;;
72856;SDS011;62742;52.136;4.500;2022-08-21T05:55:16;23.02;;;8.00;;
72856;SDS011;62742;52.136;4.500;2022-08-21T05:57:42;17.85;;;7.57;;
72856;SDS011;62742;52.136;4.500;2022-08-21T06:00:09;16.08;;;6.53;;
72856;SDS011;62742;52.136;4.500;2022-08-21T06:02:38;15.30;;;6.40;;
72856;SDS011;62742;52.136;4.500;2022-08-21T06:05:06;14.88;;;6.07;;
72856;SDS011;62742;52.136;4.500;2022-08-21T06:07:34;13.88;;;5.63;;
72856;SDS011;62742;52.136;4.500;2022-08-21T06:10:00;11.07;;;5.15;;
72856;SDS011;62742;52.136;4.500;2022-08-21T06:12:27;13.00;;;4.95;;
72856;SDS011;62742;52.136;4.500;2022-08-21T06:14:54;12.90;;;5.50;;
72856;SDS011;62742;52.136;4.500;2022-08-21T06:17:20;13.48;;;5.35;;
72856;SDS011;62742;52.136;4.500;2022-08-21T06:19:50;14.88;;;5.20;;
72856;SDS011;62742;52.136;4.500;2022-08-21T06:22:18;15.40;;;5.07;;
72856;SDS011;62742;52.136;4.500;2022-08-21T06:24:46;12.98;;;5.45;;
72856;SDS011;62742;52.136;4.500;2022-08-21T06:27:12;15.10;;;4.85;;
72856;SDS011;62742;52.136;4.500;2022-08-21T06:29:39;14.38;;;5.47;;
72856;SDS011;62742;52.136;4.500;2022-08-21T06:32:06;11.80;;;5.15;;
72856;SDS011;62742;52.136;4.500;2022-08-21T06:34:36;11.85;;;4.45;;
72856;SDS011;62742;52.136;4.500;2022-08-21T06:37:05;14.23;;;4.70;;
72856;SDS011;62742;52.136;4.500;2022-08-21T06:39:32;12.32;;;5.20;;
72856;SDS011;62742;52.136;4.500;2022-08-21T06:42:00;15.30;;;4.60;;
72856;SDS011;62742;52.136;4.500;2022-08-21T06:44:27;13.75;;;5.35;;
72856;SDS011;62742;52.136;4.500;2022-08-21T06:46:56;14.20;;;4.75;;
72856;SDS011;62742;52.136;4.500;2022-08-21T06:49:23;11.57;;;4.60;;
72856;SDS011;62742;52.136;4.500;2022-08-21T06:51:49;12.75;;;5.07;;
72856;SDS011;62742;52.136;4.500;2022-08-21T06:54:16;13.80;;;4.53;;
72856;SDS011;62742;52.136;4.500;2022-08-21T06:56:42;10.15;;;4.60;;
72856;SDS011;62742;52.136;4.500;2022-08-21T06:59:09;11.23;;;4.55;;
72856;SDS011;62742;52.136;4.500;2022-08-21T07:01:35;12.07;;;5.10;;
72856;SDS011;62742;52.136;4.500;2022-08-21T07:04:02;11.95;;;4.43;;
72856;SDS011;62742;52.136;4.500;2022-08-21T07:06:29;14.43;;;4.60;;
72856;SDS011;62742;52.136;4.500;2022-08-21T07:08:56;11.35;;;4.63;;
72856;SDS011;62742;52.136;4.500;2022-08-21T07:11:23;15.23;;;4.55;;
72856;SDS011;62742;52.136;4.500;2022-08-21T07:13:51;15.13;;;5.88;;
72856;SDS011;62742;52.136;4.500;2022-08-21T07:16:20;15.38;;;4.43;;
72856;SDS011;62742;52.136;4.500;2022-08-21T07:18:47;13.90;;;4.18;;
72856;SDS011;62742;52.136;4.500;2022-08-21T07:21:15;12.50;;;4.63;;
72856;SDS011;62742;52.136;4.500;2022-08-21T07:23:46;11.88;;;4.32;;
72856;SDS011;62742;52.136;4.500;2022-08-21T07:26:16;14.50;;;4.82;;
72856;SDS011;62742;52.136;4.500;2022-08-21T07:28:49;15.60;;;4.40;;
72856;SDS011;62742;52.136;4.500;2022-08-21T07:31:17;14.50;;;4.57;;
72856;SDS011;62742;52.136;4.500;2022-08-21T07:33:47;16.63;;;4.80;;
72856;SDS011;62742;52.136;4.500;2022-08-21T07:36:14;12.90;;;5.03;;
72856;SDS011;62742;52.136;4.500;2022-08-21T07:38:41;15.95;;;5.32;;
72856;SDS011;62742;52.136;4.500;2022-08-21T07:41:41;12.68;;;3.88;;
72856;SDS011;62742;52.136;4.500;2022-08-21T07:44:01;12.13;;;4.18;;
72856;SDS011;62742;52.136;4.500;2022-08-21T07:46:28;13.35;;;4.57;;
72856;SDS011;62742;52.136;4.500;2022-08-21T07:48:55;11.10;;;4.35;;
72856;SDS011;62742;52.136;4.500;2022-08-21T07:51:24;12.20;;;3.88;;
72856;SDS011;62742;52.136;4.500;2022-08-21T07:53:54;15.98;;;4.25;;
72856;SDS011;62742;52.136;4.500;2022-08-21T07:56:25;12.38;;;3.92;;
72856;SDS011;62742;52.136;4.500;2022-08-21T07:58:53;13.80;;;3.88;;
72856;SDS011;62742;52.136;4.500;2022-08-21T08:01:20;12.80;;;4.53;;
72856;SDS011;62742;52.136;4.500;2022-08-21T08:03:46;13.40;;;4.07;;
72856;SDS011;62742;52.136;4.500;2022-08-21T08:06:13;16.27;;;4.00;;
72856;SDS011;62742;52.136;4.500;2022-08-21T08:08:42;14.68;;;3.75;;
72856;SDS011;62742;52.136;4.500;2022-08-21T08:11:09;13.65;;;3.70;;
72856;SDS011;62742;52.136;4.500;2022-08-21T08:13:40;13.00;;;3.90;;
72856;SDS011;62742;52.136;4.500;2022-08-21T08:16:10;20.17;;;4.15;;
72856;SDS011;62742;52.136;4.500;2022-08-21T08:18:36;9.80;;;3.63;;
72856;SDS011;62742;52.136;4.500;2022-08-21T08:21:04;12.00;;;3.72;;
72856;SDS011;62742;52.136;4.500;2022-08-21T08:23:31;16.42;;;3.85;;
72856;SDS011;62742;52.136;4.500;2022-08-21T08:25:59;13.65;;;3.88;;
72856;SDS011;62742;52.136;4.500;2022-08-21T08:28:28;13.13;;;3.53;;
72856;SDS011;62742;52.136;4.500;2022-08-21T08:30:58;12.50;;;3.88;;
72856;SDS011;62742;52.136;4.500;2022-08-21T08:33:25;11.27;;;3.92;;
72856;SDS011;62742;52.136;4.500;2022-08-21T08:35:53;13.10;;;3.42;;
72856;SDS011;62742;52.136;4.500;2022-08-21T08:38:20;17.50;;;3.88;;
72856;SDS011;62742;52.136;4.500;2022-08-21T08:43:28;9.93;;;2.80;;
72856;SDS011;62742;52.136;4.500;2022-08-21T08:45:58;12.60;;;2.72;;
72856;SDS011;62742;52.136;4.500;2022-08-21T08:48:51;11.13;;;3.67;;
72856;SDS011;62742;52.136;4.500;2022-08-21T08:51:33;11.20;;;2.75;;
72856;SDS011;62742;52.136;4.500;2022-08-21T08:54:11;11.25;;;2.40;;
72856;SDS011;62742;52.136;4.500;2022-08-21T08:56:45;7.00;;;2.20;;
72856;SDS011;62742;52.136;4.500;2022-08-21T08:59:18;11.75;;;2.20;;
72856;SDS011;62742;52.136;4.500;2022-08-21T09:01:51;10.88;;;2.33;;
72856;SDS011;62742;52.136;4.500;2022-08-21T09:04:21;9.15;;;2.13;;
72856;SDS011;62742;52.136;4.500;2022-08-21T09:07:16;7.00;;;2.00;;
72856;SDS011;62742;52.136;4.500;2022-08-21T09:18:41;6.25;;;1.60;;
72856;SDS011;62742;52.136;4.500;2022-08-21T09:21:43;10.77;;;1.70;;
72856;SDS011;62742;52.136;4.500;2022-08-21T09:27:24;8.63;;;1.80;;
72856;SDS011;62742;52.136;4.500;2022-08-21T09:29:52;5.20;;;1.40;;
72856;SDS011;62742;52.136;4.500;2022-08-21T09:32:21;6.70;;;1.60;;
72856;SDS011;62742;52.136;4.500;2022-08-21T09:40:43;6.55;;;1.80;;
72856;SDS011;62742;52.136;4.500;2022-08-21T09:45:40;5.97;;;1.55;;
72856;SDS011;62742;52.136;4.500;2022-08-21T09:48:10;9.43;;;1.65;;
72856;SDS011;62742;52.136;4.500;2022-08-21T09:53:24;6.72;;;1.55;;
72856;SDS011;62742;52.136;4.500;2022-08-21T09:55:59;6.18;;;1.75;;
72856;SDS011;62742;52.136;4.500;2022-08-21T09:58:50;5.72;;;1.42;;
72856;SDS011;62742;52.136;4.500;2022-08-21T10:01:21;6.18;;;1.58;;
72856;SDS011;62742;52.136;4.500;2022-08-21T10:07:05;7.20;;;1.80;;
72856;SDS011;62742;52.136;4.500;2022-08-21T10:09:38;9.10;;;2.05;;
72856;SDS011;62742;52.136;4.500;2022-08-21T10:12:10;7.03;;;1.65;;
72856;SDS011;62742;52.136;4.500;2022-08-21T10:17:37;8.85;;;1.92;;
72856;SDS011;62742;52.136;4.500;2022-08-21T10:26:42;7.65;;;1.95;;
72856;SDS011;62742;52.136;4.500;2022-08-21T10:29:47;5.45;;;1.60;;
72856;SDS011;62742;52.136;4.500;2022-08-21T10:35:29;8.38;;;2.20;;
72856;SDS011;62742;52.136;4.500;2022-08-21T10:44:12;6.40;;;1.88;;
72856;SDS011;62742;52.136;4.500;2022-08-21T10:47:06;8.75;;;2.22;;
72856;SDS011;62742;52.136;4.500;2022-08-21T10:58:04;10.25;;;1.85;;
72856;SDS011;62742;52.136;4.500;2022-08-21T11:00:47;6.53;;;1.98;;
72856;SDS011;62742;52.136;4.500;2022-08-21T11:03:35;4.70;;;1.65;;
72856;SDS011;62742;52.136;4.500;2022-08-21T11:06:16;7.50;;;1.70;;
72856;SDS011;62742;52.136;4.500;2022-08-21T11:08:53;6.40;;;1.70;;
72856;SDS011;62742;52.136;4.500;2022-08-21T11:11:31;9.77;;;1.90;;
72856;SDS011;62742;52.136;4.500;2022-08-21T11:14:08;7.03;;;1.85;;
72856;SDS011;62742;52.136;4.500;2022-08-21T11:17:09;8.45;;;1.90;;
72856;SDS011;62742;52.136;4.500;2022-08-21T11:19:52;6.80;;;1.65;;
72856;SDS011;62742;52.136;4.500;2022-08-21T11:22:39;4.93;;;1.70;;
72856;SDS011;62742;52.136;4.500;2022-08-21T11:25:22;6.07;;;2.08;;
72856;SDS011;62742;52.136;4.500;2022-08-21T11:28:00;7.35;;;1.98;;
72856;SDS011;62742;52.136;4.500;2022-08-21T11:31:22;7.22;;;1.77;;
72856;SDS011;62742;52.136;4.500;2022-08-21T11:39:43;9.60;;;2.15;;
72856;SDS011;62742;52.136;4.500;2022-08-21T11:42:56;7.20;;;1.98;;
72856;SDS011;62742;52.136;4.500;2022-08-21T11:48:33;7.18;;;1.75;;
72856;SDS011;62742;52.136;4.500;2022-08-21T11:51:59;7.38;;;2.05;;
72856;SDS011;62742;52.136;4.500;2022-08-21T11:54:55;6.53;;;1.92;;
72856;SDS011;62742;52.136;4.500;2022-08-21T11:57:32;8.75;;;2.13;;
72856;SDS011;62742;52.136;4.500;2022-08-21T12:00:26;7.45;;;1.70;;
72856;SDS011;62742;52.136;4.500;2022-08-21T12:03:09;10.95;;;2.10;;
72856;SDS011;62742;52.136;4.500;2022-08-21T12:05:52;9.52;;;2.20;;
72856;SDS011;62742;52.136;4.500;2022-08-21T12:08:33;10.50;;;1.92;;
72856;SDS011;62742;52.136;4.500;2022-08-21T12:13:59;6.65;;;1.85;;
72856;SDS011;62742;52.136;4.500;2022-08-21T12:16:41;11.73;;;2.05;;
72856;SDS011;62742;52.136;4.500;2022-08-21T12:19:27;7.00;;;1.55;;
72856;SDS011;62742;52.136;4.500;2022-08-21T12:24:44;6.15;;;1.52;;
72856;SDS011;62742;52.136;4.500;2022-08-21T12:30:19;7.28;;;2.00;;
72856;SDS011;62742;52.136;4.500;2022-08-21T12:33:00;6.03;;;1.70;;
72856;SDS011;62742;52.136;4.500;2022-08-21T12:35:45;8.65;;;1.92;;
72856;SDS011;62742;52.136;4.500;2022-08-21T12:38:17;8.70;;;1.52;;
72856;SDS011;62742;52.136;4.500;2022-08-21T12:40:53;6.68;;;1.90;;
72856;SDS011;62742;52.136;4.500;2022-08-21T12:43:40;4.70;;;1.60;;
72856;SDS011;62742;52.136;4.500;2022-08-21T12:46:19;7.88;;;1.85;;
72856;SDS011;62742;52.136;4.500;2022-08-21T12:49:54;8.68;;;1.90;;
72856;SDS011;62742;52.136;4.500;2022-08-21T12:55:03;9.13;;;1.63;;
72856;SDS011;62742;52.136;4.500;2022-08-21T12:57:30;4.57;;;1.35;;
72856;SDS011;62742;52.136;4.500;2022-08-21T12:59:58;7.65;;;1.95;;
72856;SDS011;62742;52.136;4.500;2022-08-21T13:02:33;7.03;;;1.80;;
72856;SDS011;62742;52.136;4.500;2022-08-21T13:05:11;9.65;;;1.83;;
72856;SDS011;62742;52.136;4.500;2022-08-21T13:07:46;7.78;;;2.13;;
72856;SDS011;62742;52.136;4.500;2022-08-21T13:10:28;8.30;;;1.75;;
72856;SDS011;62742;52.136;4.500;2022-08-21T13:12:59;9.70;;;1.83;;
72856;SDS011;62742;52.136;4.500;2022-08-21T13:15:33;5.72;;;1.75;;
72856;SDS011;62742;52.136;4.500;2022-08-21T13:18:03;11.68;;;2.55;;
72856;SDS011;62742;52.136;4.500;2022-08-21T13:20:32;8.10;;;1.85;;
72856;SDS011;62742;52.136;4.500;2022-08-21T13:23:20;7.10;;;1.65;;
72856;SDS011;62742;52.136;4.500;2022-08-21T13:25:55;8.20;;;1.70;;
72856;SDS011;62742;52.136;4.500;2022-08-21T13:28:23;8.00;;;1.85;;
72856;SDS011;62742;52.136;4.500;2022-08-21T13:30:59;5.75;;;1.55;;
72856;SDS011;62742;52.136;4.500;2022-08-21T13:33:27;8.55;;;1.95;;
72856;SDS011;62742;52.136;4.500;2022-08-21T13:36:09;6.75;;;1.80;;
72856;SDS011;62742;52.136;4.500;2022-08-21T13:38:43;7.70;;;2.08;;
72856;SDS011;62742;52.136;4.500;2022-08-21T13:41:21;7.95;;;1.83;;
72856;SDS011;62742;52.136;4.500;2022-08-21T13:43:57;7.88;;;1.77;;
72856;SDS011;62742;52.136;4.500;2022-08-21T13:46:32;7.47;;;1.60;;
72856;SDS011;62742;52.136;4.500;2022-08-21T13:49:03;6.28;;;1.90;;
72856;SDS011;62742;52.136;4.500;2022-08-21T13:51:33;6.50;;;1.75;;
72856;SDS011;62742;52.136;4.500;2022-08-21T13:54:12;4.93;;;1.75;;
72856;SDS011;62742;52.136;4.500;2022-08-21T13:56:53;9.85;;;1.88;;
72856;SDS011;62742;52.136;4.500;2022-08-21T13:59:30;7.55;;;1.75;;
72856;SDS011;62742;52.136;4.500;2022-08-21T14:02:10;8.18;;;2.38;;
72856;SDS011;62742;52.136;4.500;2022-08-21T14:07:28;8.75;;;1.90;;
72856;SDS011;62742;52.136;4.500;2022-08-21T14:10:35;6.43;;;1.80;;
72856;SDS011;62742;52.136;4.500;2022-08-21T14:15:30;9.85;;;1.80;;
72856;SDS011;62742;52.136;4.500;2022-08-21T14:18:16;6.25;;;1.70;;
72856;SDS011;62742;52.136;4.500;2022-08-21T14:20:45;9.20;;;2.10;;
72856;SDS011;62742;52.136;4.500;2022-08-21T14:23:23;8.93;;;1.88;;
72856;SDS011;62742;52.136;4.500;2022-08-21T14:25:53;8.20;;;2.15;;
72856;SDS011;62742;52.136;4.500;2022-08-21T14:31:28;8.10;;;2.08;;
72856;SDS011;62742;52.136;4.500;2022-08-21T14:33:56;10.68;;;2.10;;
72856;SDS011;62742;52.136;4.500;2022-08-21T14:36:22;9.82;;;2.22;;
72856;SDS011;62742;52.136;4.500;2022-08-21T14:38:50;8.30;;;2.03;;
72856;SDS011;62742;52.136;4.500;2022-08-21T14:41:17;8.18;;;2.03;;
72856;SDS011;62742;52.136;4.500;2022-08-21T14:43:48;9.27;;;2.08;;
72856;SDS011;62742;52.136;4.500;2022-08-21T14:46:18;9.30;;;2.15;;
72856;SDS011;62742;52.136;4.500;2022-08-21T14:48:51;7.63;;;2.08;;
72856;SDS011;62742;52.136;4.500;2022-08-21T14:51:18;7.78;;;1.95;;
72856;SDS011;62742;52.136;4.500;2022-08-21T14:53:45;9.00;;;2.05;;
72856;SDS011;62742;52.136;4.500;2022-08-21T14:56:12;7.70;;;1.75;;
72856;SDS011;62742;52.136;4.500;2022-08-21T14:58:41;8.07;;;2.38;;
72856;SDS011;62742;52.136;4.500;2022-08-21T15:01:14;11.90;;;2.60;;
72856;SDS011;62742;52.136;4.500;2022-08-21T15:03:44;9.50;;;2.30;;
72856;SDS011;62742;52.136;4.500;2022-08-21T15:06:11;9.80;;;1.80;;
72856;SDS011;62742;52.136;4.500;2022-08-21T15:08:38;7.72;;;2.00;;
72856;SDS011;62742;52.136;4.500;2022-08-21T15:11:05;7.80;;;1.90;;
72856;SDS011;62742;52.136;4.500;2022-08-21T15:13:32;7.65;;;2.10;;
72856;SDS011;62742;52.136;4.500;2022-08-21T15:16:00;8.48;;;2.03;;
72856;SDS011;62742;52.136;4.500;2022-08-21T15:18:27;8.73;;;1.90;;
72856;SDS011;62742;52.136;4.500;2022-08-21T15:20:56;7.82;;;2.08;;
72856;SDS011;62742;52.136;4.500;2022-08-21T15:23:23;8.27;;;2.15;;
72856;SDS011;62742;52.136;4.500;2022-08-21T15:25:49;9.27;;;2.25;;
72856;SDS011;62742;52.136;4.500;2022-08-21T15:28:18;8.20;;;1.95;;
72856;SDS011;62742;52.136;4.500;2022-08-21T15:30:47;7.88;;;2.00;;
72856;SDS011;62742;52.136;4.500;2022-08-21T15:33:14;11.07;;;2.28;;
72856;SDS011;62742;52.136;4.500;2022-08-21T15:35:41;4.70;;;1.70;;
72856;SDS011;62742;52.136;4.500;2022-08-21T15:38:08;10.00;;;2.50;;
72856;SDS011;62742;52.136;4.500;2022-08-21T15:40:35;8.07;;;2.22;;
72856;SDS011;62742;52.136;4.500;2022-08-21T15:43:04;8.52;;;2.20;;
72856;SDS011;62742;52.136;4.500;2022-08-21T15:45:32;9.02;;;1.95;;
72856;SDS011;62742;52.136;4.500;2022-08-21T15:47:59;10.55;;;2.20;;
72856;SDS011;62742;52.136;4.500;2022-08-21T15:50:26;7.75;;;2.13;;
72856;SDS011;62742;52.136;4.500;2022-08-21T15:52:54;7.60;;;2.20;;
72856;SDS011;62742;52.136;4.500;2022-08-21T15:55:21;8.88;;;2.10;;
72856;SDS011;62742;52.136;4.500;2022-08-21T15:57:48;9.93;;;2.10;;
72856;SDS011;62742;52.136;4.500;2022-08-21T16:00:19;11.25;;;2.65;;
72856;SDS011;62742;52.136;4.500;2022-08-21T16:02:53;10.93;;;2.28;;
72856;SDS011;62742;52.136;4.500;2022-08-21T16:05:24;9.65;;;2.13;;
72856;SDS011;62742;52.136;4.500;2022-08-21T16:07:51;8.73;;;2.40;;
72856;SDS011;62742;52.136;4.500;2022-08-21T16:10:19;7.10;;;2.00;;
72856;SDS011;62742;52.136;4.500;2022-08-21T16:12:50;11.48;;;1.90;;
72856;SDS011;62742;52.136;4.500;2022-08-21T16:15:26;7.90;;;2.35;;
72856;SDS011;62742;52.136;4.500;2022-08-21T16:17:53;8.02;;;2.20;;
72856;SDS011;62742;52.136;4.500;2022-08-21T16:20:23;8.07;;;1.83;;
72856;SDS011;62742;52.136;4.500;2022-08-21T16:22:53;8.02;;;2.13;;
72856;SDS011;62742;52.136;4.500;2022-08-21T16:25:22;8.93;;;2.50;;
72856;SDS011;62742;52.136;4.500;2022-08-21T16:27:51;7.70;;;2.13;;
72856;SDS011;62742;52.136;4.500;2022-08-21T16:30:26;8.10;;;2.10;;
72856;SDS011;62742;52.136;4.500;2022-08-21T16:32:54;8.95;;;2.90;;